sensor_id;sensor_type;location;lat;lon;timestamp;temperature;humidity
68358;DHT22;55276;53.260;50.222;2022-09-09T00:01:43;10.40;84.40
68358;DHT22;55276;53.260;50.222;2022-09-09T00:04:13;10.50;84.20
68358;DHT22;55276;53.260;50.222;2022-09-09T00:06:44;10.50;84.00
68358;DHT22;55276;53.260;50.222;2022-09-09T00:09:18;10.50;83.90
68358;DHT22;55276;53.260;50.222;2022-09-09T00:11:48;10.50;83.80
68358;DHT22;55276;53.260;50.222;2022-09-09T00:16:45;10.40;83.90
68358;DHT22;55276;53.260;50.222;2022-09-09T00:21:42;10.40;84.10
68358;DHT22;55276;53.260;50.222;2022-09-09T00:24:24;10.30;84.20
68358;DHT22;55276;53.260;50.222;2022-09-09T00:27:04;10.30;84.40
68358;DHT22;55276;53.260;50.222;2022-09-09T00:29:33;10.30;84.50
68358;DHT22;55276;53.260;50.222;2022-09-09T00:32:07;10.30;84.70
68358;DHT22;55276;53.260;50.222;2022-09-09T00:34:35;10.30;84.50
68358;DHT22;55276;53.260;50.222;2022-09-09T00:37:02;10.30;84.40
68358;DHT22;55276;53.260;50.222;2022-09-09T00:39:36;10.30;84.40
68358;DHT22;55276;53.260;50.222;2022-09-09T00:44:36;10.30;84.20
68358;DHT22;55276;53.260;50.222;2022-09-09T00:49:40;10.30;84.10
68358;DHT22;55276;53.260;50.222;2022-09-09T00:52:18;10.30;84.10
68358;DHT22;55276;53.260;50.222;2022-09-09T00:55:34;10.30;84.10
68358;DHT22;55276;53.260;50.222;2022-09-09T00:57:37;10.30;84.00
68358;DHT22;55276;53.260;50.222;2022-09-09T01:00:23;10.30;83.90
68358;DHT22;55276;53.260;50.222;2022-09-09T01:05:27;10.40;83.70
68358;DHT22;55276;53.260;50.222;2022-09-09T01:07:56;10.40;83.50
68358;DHT22;55276;53.260;50.222;2022-09-09T01:13:02;10.50;83.40
68358;DHT22;55276;53.260;50.222;2022-09-09T01:15:31;10.50;83.10
68358;DHT22;55276;53.260;50.222;2022-09-09T01:18:00;10.50;83.10
68358;DHT22;55276;53.260;50.222;2022-09-09T01:28:11;10.40;83.60
68358;DHT22;55276;53.260;50.222;2022-09-09T01:30:40;10.30;83.80
68358;DHT22;55276;53.260;50.222;2022-09-09T01:33:14;10.30;84.00
68358;DHT22;55276;53.260;50.222;2022-09-09T01:38:09;10.20;84.40
68358;DHT22;55276;53.260;50.222;2022-09-09T01:40:36;10.20;84.60
68358;DHT22;55276;53.260;50.222;2022-09-09T01:43:02;10.20;84.80
68358;DHT22;55276;53.260;50.222;2022-09-09T01:45:28;10.10;84.90
68358;DHT22;55276;53.260;50.222;2022-09-09T01:47:54;10.10;85.00
68358;DHT22;55276;53.260;50.222;2022-09-09T01:50:20;10.10;85.10
68358;DHT22;55276;53.260;50.222;2022-09-09T01:52:47;10.10;85.20
68358;DHT22;55276;53.260;50.222;2022-09-09T01:55:14;10.10;85.10
68358;DHT22;55276;53.260;50.222;2022-09-09T01:57:53;10.10;85.10
68358;DHT22;55276;53.260;50.222;2022-09-09T02:00:21;10.10;85.20
68358;DHT22;55276;53.260;50.222;2022-09-09T02:08:08;10.20;84.60
68358;DHT22;55276;53.260;50.222;2022-09-09T02:13:09;10.10;84.50
68358;DHT22;55276;53.260;50.222;2022-09-09T02:15:48;10.10;84.70
68358;DHT22;55276;53.260;50.222;2022-09-09T02:18:24;10.20;84.60
68358;DHT22;55276;53.260;50.222;2022-09-09T02:20:53;10.30;84.50
68358;DHT22;55276;53.260;50.222;2022-09-09T02:23:19;10.30;84.20
68358;DHT22;55276;53.260;50.222;2022-09-09T02:25:46;10.30;84.20
68358;DHT22;55276;53.260;50.222;2022-09-09T02:28:15;10.20;84.00
68358;DHT22;55276;53.260;50.222;2022-09-09T02:30:41;10.20;84.00
68358;DHT22;55276;53.260;50.222;2022-09-09T02:33:07;10.20;84.00
68358;DHT22;55276;53.260;50.222;2022-09-09T02:35:36;10.30;84.20
68358;DHT22;55276;53.260;50.222;2022-09-09T02:38:04;10.30;84.20
68358;DHT22;55276;53.260;50.222;2022-09-09T02:40:30;10.30;84.20
68358;DHT22;55276;53.260;50.222;2022-09-09T02:42:57;10.40;84.00
68358;DHT22;55276;53.260;50.222;2022-09-09T02:45:24;10.40;83.50
68358;DHT22;55276;53.260;50.222;2022-09-09T02:50:22;10.40;83.10
68358;DHT22;55276;53.260;50.222;2022-09-09T02:55:27;10.50;83.00
68358;DHT22;55276;53.260;50.222;2022-09-09T02:57:55;10.50;83.10
68358;DHT22;55276;53.260;50.222;2022-09-09T03:00:25;10.60;83.00
68358;DHT22;55276;53.260;50.222;2022-09-09T03:02:52;10.60;82.80
68358;DHT22;55276;53.260;50.222;2022-09-09T03:05:20;10.70;82.70
68358;DHT22;55276;53.260;50.222;2022-09-09T03:07:46;10.70;82.20
68358;DHT22;55276;53.260;50.222;2022-09-09T03:10:12;10.70;81.70
68358;DHT22;55276;53.260;50.222;2022-09-09T03:12:39;10.70;81.80
68358;DHT22;55276;53.260;50.222;2022-09-09T03:15:06;10.70;81.90
68358;DHT22;55276;53.260;50.222;2022-09-09T03:17:32;10.80;81.90
68358;DHT22;55276;53.260;50.222;2022-09-09T03:20:00;10.80;81.50
68358;DHT22;55276;53.260;50.222;2022-09-09T03:22:26;10.80;81.20
68358;DHT22;55276;53.260;50.222;2022-09-09T03:24:52;10.80;80.80
68358;DHT22;55276;53.260;50.222;2022-09-09T03:27:18;10.80;81.00
68358;DHT22;55276;53.260;50.222;2022-09-09T03:29:46;11.00;81.00
68358;DHT22;55276;53.260;50.222;2022-09-09T03:32:14;11.10;79.90
68358;DHT22;55276;53.260;50.222;2022-09-09T03:34:43;11.00;79.40
68358;DHT22;55276;53.260;50.222;2022-09-09T03:37:09;10.90;79.50
68358;DHT22;55276;53.260;50.222;2022-09-09T03:39:35;10.90;79.70
68358;DHT22;55276;53.260;50.222;2022-09-09T03:42:01;11.10;79.60
68358;DHT22;55276;53.260;50.222;2022-09-09T03:44:30;11.10;79.20
68358;DHT22;55276;53.260;50.222;2022-09-09T03:46:56;11.20;79.50
68358;DHT22;55276;53.260;50.222;2022-09-09T03:49:22;11.20;79.60
68358;DHT22;55276;53.260;50.222;2022-09-09T03:51:48;11.30;79.10
68358;DHT22;55276;53.260;50.222;2022-09-09T03:54:14;11.20;78.90
68358;DHT22;55276;53.260;50.222;2022-09-09T03:56:40;11.20;78.90
68358;DHT22;55276;53.260;50.222;2022-09-09T03:59:07;11.30;78.50
68358;DHT22;55276;53.260;50.222;2022-09-09T04:01:34;11.30;78.40
68358;DHT22;55276;53.260;50.222;2022-09-09T04:04:00;11.30;78.20
68358;DHT22;55276;53.260;50.222;2022-09-09T04:06:27;11.30;77.90
68358;DHT22;55276;53.260;50.222;2022-09-09T04:08:53;11.30;78.20
68358;DHT22;55276;53.260;50.222;2022-09-09T04:11:20;11.40;78.20
68358;DHT22;55276;53.260;50.222;2022-09-09T04:13:47;11.50;77.80
68358;DHT22;55276;53.260;50.222;2022-09-09T04:16:14;11.60;77.30
68358;DHT22;55276;53.260;50.222;2022-09-09T04:18:41;11.70;77.10
68358;DHT22;55276;53.260;50.222;2022-09-09T04:21:08;11.80;76.40
68358;DHT22;55276;53.260;50.222;2022-09-09T04:23:37;11.90;76.30
68358;DHT22;55276;53.260;50.222;2022-09-09T04:26:03;11.90;75.50
68358;DHT22;55276;53.260;50.222;2022-09-09T04:28:30;11.80;75.10
68358;DHT22;55276;53.260;50.222;2022-09-09T04:31:03;11.80;75.20
68358;DHT22;55276;53.260;50.222;2022-09-09T04:33:30;11.90;75.40
68358;DHT22;55276;53.260;50.222;2022-09-09T04:35:56;11.80;74.90
68358;DHT22;55276;53.260;50.222;2022-09-09T04:38:22;11.90;75.20
68358;DHT22;55276;53.260;50.222;2022-09-09T04:40:49;11.80;75.00
68358;DHT22;55276;53.260;50.222;2022-09-09T04:43:15;11.80;75.10
68358;DHT22;55276;53.260;50.222;2022-09-09T04:45:41;11.90;75.40
68358;DHT22;55276;53.260;50.222;2022-09-09T04:48:08;12.00;74.20
68358;DHT22;55276;53.260;50.222;2022-09-09T04:50:35;12.00;73.70
68358;DHT22;55276;53.260;50.222;2022-09-09T04:53:01;12.10;73.60
68358;DHT22;55276;53.260;50.222;2022-09-09T04:55:27;12.00;73.80
68358;DHT22;55276;53.260;50.222;2022-09-09T04:57:54;11.90;73.70
68358;DHT22;55276;53.260;50.222;2022-09-09T05:00:20;11.90;73.50
68358;DHT22;55276;53.260;50.222;2022-09-09T05:02:46;11.90;73.50
68358;DHT22;55276;53.260;50.222;2022-09-09T05:05:13;11.90;73.90
68358;DHT22;55276;53.260;50.222;2022-09-09T05:07:39;12.10;74.00
68358;DHT22;55276;53.260;50.222;2022-09-09T05:10:05;12.20;73.60
68358;DHT22;55276;53.260;50.222;2022-09-09T05:12:31;12.30;73.00
68358;DHT22;55276;53.260;50.222;2022-09-09T05:14:57;12.40;72.90
68358;DHT22;55276;53.260;50.222;2022-09-09T05:17:23;12.50;72.70
68358;DHT22;55276;53.260;50.222;2022-09-09T05:19:49;12.50;72.70
68358;DHT22;55276;53.260;50.222;2022-09-09T05:22:19;12.60;72.90
68358;DHT22;55276;53.260;50.222;2022-09-09T05:24:46;12.80;72.30
68358;DHT22;55276;53.260;50.222;2022-09-09T05:27:12;13.00;71.60
68358;DHT22;55276;53.260;50.222;2022-09-09T05:29:38;12.90;70.60
68358;DHT22;55276;53.260;50.222;2022-09-09T05:32:05;12.80;71.10
68358;DHT22;55276;53.260;50.222;2022-09-09T05:34:31;12.90;71.10
68358;DHT22;55276;53.260;50.222;2022-09-09T05:36:57;13.10;70.90
68358;DHT22;55276;53.260;50.222;2022-09-09T05:39:23;13.20;70.50
68358;DHT22;55276;53.260;50.222;2022-09-09T05:41:49;13.30;70.00
68358;DHT22;55276;53.260;50.222;2022-09-09T05:44:16;13.30;69.50
68358;DHT22;55276;53.260;50.222;2022-09-09T05:46:43;13.30;69.10
68358;DHT22;55276;53.260;50.222;2022-09-09T05:49:10;13.20;69.30
68358;DHT22;55276;53.260;50.222;2022-09-09T05:51:36;13.20;69.00
68358;DHT22;55276;53.260;50.222;2022-09-09T05:54:02;13.10;68.50
68358;DHT22;55276;53.260;50.222;2022-09-09T05:56:28;12.90;68.80
68358;DHT22;55276;53.260;50.222;2022-09-09T05:58:55;12.70;69.10
68358;DHT22;55276;53.260;50.222;2022-09-09T06:01:22;12.60;67.80
68358;DHT22;55276;53.260;50.222;2022-09-09T06:03:48;12.40;68.40
68358;DHT22;55276;53.260;50.222;2022-09-09T06:06:18;12.40;69.00
68358;DHT22;55276;53.260;50.222;2022-09-09T06:08:46;12.60;69.40
68358;DHT22;55276;53.260;50.222;2022-09-09T06:11:13;12.80;68.00
68358;DHT22;55276;53.260;50.222;2022-09-09T06:13:40;12.80;68.10
68358;DHT22;55276;53.260;50.222;2022-09-09T06:16:25;13.10;67.80
68358;DHT22;55276;53.260;50.222;2022-09-09T06:18:52;13.20;67.50
68358;DHT22;55276;53.260;50.222;2022-09-09T06:21:19;13.20;66.70
68358;DHT22;55276;53.260;50.222;2022-09-09T06:23:46;13.20;66.20
68358;DHT22;55276;53.260;50.222;2022-09-09T06:26:20;13.30;65.90
68358;DHT22;55276;53.260;50.222;2022-09-09T06:28:47;13.40;65.20
68358;DHT22;55276;53.260;50.222;2022-09-09T06:31:13;13.80;65.00
68358;DHT22;55276;53.260;50.222;2022-09-09T06:33:41;14.40;63.70
68358;DHT22;55276;53.260;50.222;2022-09-09T06:36:10;14.50;60.90
68358;DHT22;55276;53.260;50.222;2022-09-09T06:38:37;14.40;60.40
68358;DHT22;55276;53.260;50.222;2022-09-09T06:41:03;14.40;60.10
68358;DHT22;55276;53.260;50.222;2022-09-09T06:43:31;14.40;61.10
68358;DHT22;55276;53.260;50.222;2022-09-09T06:46:02;14.70;59.70
68358;DHT22;55276;53.260;50.222;2022-09-09T06:48:28;14.60;60.00
68358;DHT22;55276;53.260;50.222;2022-09-09T06:53:27;14.90;59.80
68358;DHT22;55276;53.260;50.222;2022-09-09T06:55:53;15.00;59.00
68358;DHT22;55276;53.260;50.222;2022-09-09T06:58:20;15.00;59.30
68358;DHT22;55276;53.260;50.222;2022-09-09T07:00:47;15.10;56.10
68358;DHT22;55276;53.260;50.222;2022-09-09T07:03:14;14.90;55.30
68358;DHT22;55276;53.260;50.222;2022-09-09T07:05:40;14.90;56.50
68358;DHT22;55276;53.260;50.222;2022-09-09T07:08:05;15.00;57.20
68358;DHT22;55276;53.260;50.222;2022-09-09T07:10:31;15.30;57.40
68358;DHT22;55276;53.260;50.222;2022-09-09T07:12:57;15.40;55.50
68358;DHT22;55276;53.260;50.222;2022-09-09T07:15:23;15.30;55.90
68358;DHT22;55276;53.260;50.222;2022-09-09T07:17:51;15.30;55.50
68358;DHT22;55276;53.260;50.222;2022-09-09T07:20:18;15.20;57.10
68358;DHT22;55276;53.260;50.222;2022-09-09T07:22:45;15.10;57.80
68358;DHT22;55276;53.260;50.222;2022-09-09T07:25:11;15.30;56.00
68358;DHT22;55276;53.260;50.222;2022-09-09T07:27:37;15.20;57.10
68358;DHT22;55276;53.260;50.222;2022-09-09T07:30:05;15.30;56.90
68358;DHT22;55276;53.260;50.222;2022-09-09T07:32:32;15.40;56.20
68358;DHT22;55276;53.260;50.222;2022-09-09T07:35:00;15.30;54.90
68358;DHT22;55276;53.260;50.222;2022-09-09T07:37:26;15.10;54.90
68358;DHT22;55276;53.260;50.222;2022-09-09T07:39:52;14.90;55.50
68358;DHT22;55276;53.260;50.222;2022-09-09T07:42:18;15.10;54.90
68358;DHT22;55276;53.260;50.222;2022-09-09T07:44:45;15.40;55.20
68358;DHT22;55276;53.260;50.222;2022-09-09T07:47:10;15.90;51.00
68358;DHT22;55276;53.260;50.222;2022-09-09T07:49:36;15.80;51.90
68358;DHT22;55276;53.260;50.222;2022-09-09T07:52:02;15.70;53.10
68358;DHT22;55276;53.260;50.222;2022-09-09T07:54:28;15.80;53.20
68358;DHT22;55276;53.260;50.222;2022-09-09T07:56:54;15.60;52.20
68358;DHT22;55276;53.260;50.222;2022-09-09T07:59:20;15.10;53.30
68358;DHT22;55276;53.260;50.222;2022-09-09T08:01:47;14.70;52.80
68358;DHT22;55276;53.260;50.222;2022-09-09T08:04:15;14.40;53.10
68358;DHT22;55276;53.260;50.222;2022-09-09T08:06:43;14.00;55.80
68358;DHT22;55276;53.260;50.222;2022-09-09T08:09:09;13.80;57.50
68358;DHT22;55276;53.260;50.222;2022-09-09T08:11:36;13.70;59.10
68358;DHT22;55276;53.260;50.222;2022-09-09T08:14:03;13.50;61.00
68358;DHT22;55276;53.260;50.222;2022-09-09T08:16:30;13.50;62.20
68358;DHT22;55276;53.260;50.222;2022-09-09T08:19:00;13.30;62.90
68358;DHT22;55276;53.260;50.222;2022-09-09T08:21:27;13.30;63.50
68358;DHT22;55276;53.260;50.222;2022-09-09T08:23:55;13.10;64.60
68358;DHT22;55276;53.260;50.222;2022-09-09T08:26:22;12.90;65.00
68358;DHT22;55276;53.260;50.222;2022-09-09T08:28:49;12.80;65.00
68358;DHT22;55276;53.260;50.222;2022-09-09T08:31:26;12.80;64.70
68358;DHT22;55276;53.260;50.222;2022-09-09T08:33:53;12.70;65.10
68358;DHT22;55276;53.260;50.222;2022-09-09T08:36:22;12.80;64.70
68358;DHT22;55276;53.260;50.222;2022-09-09T08:38:49;12.90;64.90
68358;DHT22;55276;53.260;50.222;2022-09-09T08:44:07;13.10;63.20
68358;DHT22;55276;53.260;50.222;2022-09-09T08:49:02;13.00;64.70
68358;DHT22;55276;53.260;50.222;2022-09-09T08:51:32;13.10;64.60
68358;DHT22;55276;53.260;50.222;2022-09-09T08:53:59;13.50;63.10
68358;DHT22;55276;53.260;50.222;2022-09-09T08:56:27;13.60;60.70
68358;DHT22;55276;53.260;50.222;2022-09-09T08:58:56;13.70;60.80
68358;DHT22;55276;53.260;50.222;2022-09-09T09:01:35;13.50;61.10
68358;DHT22;55276;53.260;50.222;2022-09-09T09:05:07;13.40;59.50
68358;DHT22;55276;53.260;50.222;2022-09-09T09:07:08;13.30;58.50
68358;DHT22;55276;53.260;50.222;2022-09-09T09:12:25;13.40;58.90
68358;DHT22;55276;53.260;50.222;2022-09-09T09:14:52;13.80;57.70
68358;DHT22;55276;53.260;50.222;2022-09-09T09:17:19;13.90;56.90
68358;DHT22;55276;53.260;50.222;2022-09-09T09:19:46;14.00;57.00
68358;DHT22;55276;53.260;50.222;2022-09-09T09:27:15;13.70;56.90
68358;DHT22;55276;53.260;50.222;2022-09-09T09:29:41;13.80;57.10
68358;DHT22;55276;53.260;50.222;2022-09-09T09:32:13;13.80;56.10
68358;DHT22;55276;53.260;50.222;2022-09-09T09:34:40;13.80;54.90
68358;DHT22;55276;53.260;50.222;2022-09-09T09:37:28;13.80;54.00
68358;DHT22;55276;53.260;50.222;2022-09-09T09:40:07;13.80;54.90
68358;DHT22;55276;53.260;50.222;2022-09-09T09:42:34;13.90;54.90
68358;DHT22;55276;53.260;50.222;2022-09-09T09:45:07;14.40;54.20
68358;DHT22;55276;53.260;50.222;2022-09-09T09:47:34;14.60;53.70
68358;DHT22;55276;53.260;50.222;2022-09-09T09:50:00;14.70;54.00
68358;DHT22;55276;53.260;50.222;2022-09-09T09:52:28;14.80;54.10
68358;DHT22;55276;53.260;50.222;2022-09-09T09:54:54;14.70;54.10
68358;DHT22;55276;53.260;50.222;2022-09-09T09:57:26;14.60;53.80
68358;DHT22;55276;53.260;50.222;2022-09-09T10:00:04;14.60;54.70
68358;DHT22;55276;53.260;50.222;2022-09-09T10:02:39;14.80;53.90
68358;DHT22;55276;53.260;50.222;2022-09-09T10:07:37;14.90;54.50
68358;DHT22;55276;53.260;50.222;2022-09-09T10:10:04;15.10;54.90
68358;DHT22;55276;53.260;50.222;2022-09-09T10:18:05;15.80;54.40
68358;DHT22;55276;53.260;50.222;2022-09-09T10:20:55;15.80;54.50
68358;DHT22;55276;53.260;50.222;2022-09-09T10:36:13;13.40;58.50
68358;DHT22;55276;53.260;50.222;2022-09-09T10:38:46;13.30;59.00
68358;DHT22;55276;53.260;50.222;2022-09-09T11:00:03;14.10;57.20
68358;DHT22;55276;53.260;50.222;2022-09-09T11:02:31;14.40;56.70
68358;DHT22;55276;53.260;50.222;2022-09-09T11:05:14;14.40;55.30
68358;DHT22;55276;53.260;50.222;2022-09-09T11:07:42;14.50;55.10
68358;DHT22;55276;53.260;50.222;2022-09-09T11:10:19;14.70;53.10
68358;DHT22;55276;53.260;50.222;2022-09-09T11:12:46;14.70;52.30
68358;DHT22;55276;53.260;50.222;2022-09-09T11:15:17;14.60;53.20
68358;DHT22;55276;53.260;50.222;2022-09-09T11:17:49;14.60;53.50
68358;DHT22;55276;53.260;50.222;2022-09-09T11:20:16;14.50;53.90
68358;DHT22;55276;53.260;50.222;2022-09-09T11:22:44;14.40;54.10
68358;DHT22;55276;53.260;50.222;2022-09-09T11:25:29;14.20;54.60
68358;DHT22;55276;53.260;50.222;2022-09-09T11:28:46;14.10;55.30
68358;DHT22;55276;53.260;50.222;2022-09-09T11:36:06;14.10;56.20
68358;DHT22;55276;53.260;50.222;2022-09-09T11:41:32;16.60;51.70
68358;DHT22;55276;53.260;50.222;2022-09-09T11:43:59;16.70;49.90
68358;DHT22;55276;53.260;50.222;2022-09-09T11:46:35;16.00;51.50
68358;DHT22;55276;53.260;50.222;2022-09-09T11:49:04;15.60;53.60
68358;DHT22;55276;53.260;50.222;2022-09-09T11:51:31;15.10;55.20
68358;DHT22;55276;53.260;50.222;2022-09-09T11:53:58;14.70;56.70
68358;DHT22;55276;53.260;50.222;2022-09-09T11:56:30;14.40;57.30
68358;DHT22;55276;53.260;50.222;2022-09-09T11:58:58;14.30;57.90
68358;DHT22;55276;53.260;50.222;2022-09-09T12:04:27;14.20;57.90
68358;DHT22;55276;53.260;50.222;2022-09-09T12:06:56;14.20;57.20
68358;DHT22;55276;53.260;50.222;2022-09-09T12:12:04;14.00;57.40
68358;DHT22;55276;53.260;50.222;2022-09-09T12:14:36;14.10;57.00
68358;DHT22;55276;53.260;50.222;2022-09-09T12:17:36;14.30;57.00
68358;DHT22;55276;53.260;50.222;2022-09-09T12:20:00;15.70;55.90
68358;DHT22;55276;53.260;50.222;2022-09-09T12:22:35;18.30;49.80
68358;DHT22;55276;53.260;50.222;2022-09-09T12:30:17;19.50;45.30
68358;DHT22;55276;53.260;50.222;2022-09-09T12:32:43;18.10;47.30
68358;DHT22;55276;53.260;50.222;2022-09-09T12:37:40;16.00;53.10
68358;DHT22;55276;53.260;50.222;2022-09-09T12:42:45;14.90;53.50
68358;DHT22;55276;53.260;50.222;2022-09-09T12:45:15;14.40;54.70
68358;DHT22;55276;53.260;50.222;2022-09-09T12:50:19;13.50;57.90
68358;DHT22;55276;53.260;50.222;2022-09-09T12:52:45;13.30;58.20
68358;DHT22;55276;53.260;50.222;2022-09-09T12:55:16;13.10;58.20
68358;DHT22;55276;53.260;50.222;2022-09-09T12:57:43;13.10;59.20
68358;DHT22;55276;53.260;50.222;2022-09-09T13:02:45;12.70;61.30
68358;DHT22;55276;53.260;50.222;2022-09-09T13:05:15;12.60;63.50
68358;DHT22;55276;53.260;50.222;2022-09-09T13:07:42;12.50;64.30
68358;DHT22;55276;53.260;50.222;2022-09-09T13:10:11;12.50;65.10
68358;DHT22;55276;53.260;50.222;2022-09-09T13:12:38;12.40;65.80
68358;DHT22;55276;53.260;50.222;2022-09-09T13:15:04;12.50;66.20
68358;DHT22;55276;53.260;50.222;2022-09-09T13:17:39;12.50;66.30
68358;DHT22;55276;53.260;50.222;2022-09-09T13:20:14;12.50;66.70
68358;DHT22;55276;53.260;50.222;2022-09-09T13:22:41;12.60;67.10
68358;DHT22;55276;53.260;50.222;2022-09-09T13:33:34;12.50;68.10
68358;DHT22;55276;53.260;50.222;2022-09-09T13:35:35;12.50;68.60
68358;DHT22;55276;53.260;50.222;2022-09-09T13:38:08;12.30;69.20
68358;DHT22;55276;53.260;50.222;2022-09-09T13:40:35;12.20;69.40
68358;DHT22;55276;53.260;50.222;2022-09-09T13:43:02;12.20;69.70
68358;DHT22;55276;53.260;50.222;2022-09-09T13:45:29;12.30;69.70
68358;DHT22;55276;53.260;50.222;2022-09-09T13:47:55;12.20;69.70
68358;DHT22;55276;53.260;50.222;2022-09-09T13:52:50;12.20;69.20
68358;DHT22;55276;53.260;50.222;2022-09-09T13:55:19;12.20;68.20
68358;DHT22;55276;53.260;50.222;2022-09-09T13:57:54;12.20;67.40
68358;DHT22;55276;53.260;50.222;2022-09-09T14:00:21;12.00;67.80
68358;DHT22;55276;53.260;50.222;2022-09-09T14:02:50;12.00;68.40
68358;DHT22;55276;53.260;50.222;2022-09-09T14:05:19;12.00;69.10
68358;DHT22;55276;53.260;50.222;2022-09-09T14:07:45;11.90;69.50
68358;DHT22;55276;53.260;50.222;2022-09-09T14:10:11;11.80;70.10
68358;DHT22;55276;53.260;50.222;2022-09-09T14:12:37;11.80;70.70
68358;DHT22;55276;53.260;50.222;2022-09-09T14:15:04;11.80;70.90
68358;DHT22;55276;53.260;50.222;2022-09-09T14:17:32;11.80;70.90
68358;DHT22;55276;53.260;50.222;2022-09-09T14:19:59;11.70;71.40
68358;DHT22;55276;53.260;50.222;2022-09-09T14:22:25;11.70;71.90
68358;DHT22;55276;53.260;50.222;2022-09-09T14:24:51;11.70;72.60
68358;DHT22;55276;53.260;50.222;2022-09-09T14:27:17;11.60;72.30
68358;DHT22;55276;53.260;50.222;2022-09-09T14:29:44;11.50;73.00
68358;DHT22;55276;53.260;50.222;2022-09-09T14:32:10;11.40;73.70
68358;DHT22;55276;53.260;50.222;2022-09-09T14:34:36;11.40;72.90
68358;DHT22;55276;53.260;50.222;2022-09-09T14:37:03;11.30;73.10
68358;DHT22;55276;53.260;50.222;2022-09-09T14:39:29;11.30;72.80
68358;DHT22;55276;53.260;50.222;2022-09-09T14:41:54;11.30;73.00
68358;DHT22;55276;53.260;50.222;2022-09-09T14:44:24;11.40;73.40
68358;DHT22;55276;53.260;50.222;2022-09-09T14:46:50;11.20;73.90
68358;DHT22;55276;53.260;50.222;2022-09-09T14:49:16;11.10;74.80
68358;DHT22;55276;53.260;50.222;2022-09-09T14:51:42;11.00;75.60
68358;DHT22;55276;53.260;50.222;2022-09-09T14:54:08;11.00;76.40
68358;DHT22;55276;53.260;50.222;2022-09-09T14:56:34;10.90;77.10
68358;DHT22;55276;53.260;50.222;2022-09-09T14:59:00;10.80;77.40
68358;DHT22;55276;53.260;50.222;2022-09-09T15:01:26;10.80;77.90
68358;DHT22;55276;53.260;50.222;2022-09-09T15:03:55;10.80;77.90
68358;DHT22;55276;53.260;50.222;2022-09-09T15:06:21;10.70;78.20
68358;DHT22;55276;53.260;50.222;2022-09-09T15:08:49;10.70;78.60
68358;DHT22;55276;53.260;50.222;2022-09-09T15:11:16;10.60;78.90
68358;DHT22;55276;53.260;50.222;2022-09-09T15:13:42;10.60;79.30
68358;DHT22;55276;53.260;50.222;2022-09-09T15:16:12;10.60;79.30
68358;DHT22;55276;53.260;50.222;2022-09-09T15:18:40;10.60;78.90
68358;DHT22;55276;53.260;50.222;2022-09-09T15:21:09;10.70;79.00
68358;DHT22;55276;53.260;50.222;2022-09-09T15:23:35;10.70;78.40
68358;DHT22;55276;53.260;50.222;2022-09-09T15:26:02;10.70;78.50
68358;DHT22;55276;53.260;50.222;2022-09-09T15:28:28;10.60;78.60
68358;DHT22;55276;53.260;50.222;2022-09-09T15:30:54;10.60;78.70
68358;DHT22;55276;53.260;50.222;2022-09-09T15:33:21;10.60;78.70
68358;DHT22;55276;53.260;50.222;2022-09-09T15:35:47;10.50;79.00
68358;DHT22;55276;53.260;50.222;2022-09-09T15:38:13;10.40;79.20
68358;DHT22;55276;53.260;50.222;2022-09-09T15:40:39;10.40;79.40
68358;DHT22;55276;53.260;50.222;2022-09-09T15:43:06;10.30;79.40
68358;DHT22;55276;53.260;50.222;2022-09-09T15:45:32;10.30;79.40
68358;DHT22;55276;53.260;50.222;2022-09-09T15:48:05;10.40;79.40
68358;DHT22;55276;53.260;50.222;2022-09-09T15:50:31;10.50;79.30
68358;DHT22;55276;53.260;50.222;2022-09-09T15:53:00;10.50;79.30
68358;DHT22;55276;53.260;50.222;2022-09-09T15:55:26;10.50;78.90
68358;DHT22;55276;53.260;50.222;2022-09-09T15:57:52;10.50;79.00
68358;DHT22;55276;53.260;50.222;2022-09-09T16:00:19;10.60;79.30
68358;DHT22;55276;53.260;50.222;2022-09-09T16:02:48;10.40;79.40
68358;DHT22;55276;53.260;50.222;2022-09-09T16:05:14;10.50;79.40
68358;DHT22;55276;53.260;50.222;2022-09-09T16:07:41;10.40;79.80
68358;DHT22;55276;53.260;50.222;2022-09-09T16:10:08;10.40;79.90
68358;DHT22;55276;53.260;50.222;2022-09-09T16:12:34;10.40;79.80
68358;DHT22;55276;53.260;50.222;2022-09-09T16:15:01;10.30;80.00
68358;DHT22;55276;53.260;50.222;2022-09-09T16:17:28;10.40;80.00
68358;DHT22;55276;53.260;50.222;2022-09-09T16:19:54;10.40;80.20
68358;DHT22;55276;53.260;50.222;2022-09-09T16:22:20;10.40;80.60
68358;DHT22;55276;53.260;50.222;2022-09-09T16:24:46;10.40;80.70
68358;DHT22;55276;53.260;50.222;2022-09-09T16:27:12;10.40;81.00
68358;DHT22;55276;53.260;50.222;2022-09-09T16:29:38;10.40;80.50
68358;DHT22;55276;53.260;50.222;2022-09-09T16:32:04;10.30;80.90
68358;DHT22;55276;53.260;50.222;2022-09-09T16:34:30;10.20;81.10
68358;DHT22;55276;53.260;50.222;2022-09-09T16:36:56;10.20;80.90
68358;DHT22;55276;53.260;50.222;2022-09-09T16:39:22;10.20;80.90
68358;DHT22;55276;53.260;50.222;2022-09-09T16:41:48;10.10;80.90
68358;DHT22;55276;53.260;50.222;2022-09-09T16:44:15;10.00;81.20
68358;DHT22;55276;53.260;50.222;2022-09-09T16:46:47;10.00;81.40
68358;DHT22;55276;53.260;50.222;2022-09-09T16:49:14;9.90;81.70
68358;DHT22;55276;53.260;50.222;2022-09-09T16:51:44;9.80;81.90
68358;DHT22;55276;53.260;50.222;2022-09-09T16:54:12;9.80;82.20
68358;DHT22;55276;53.260;50.222;2022-09-09T16:56:40;9.90;82.10
68358;DHT22;55276;53.260;50.222;2022-09-09T16:59:10;9.90;82.00
68358;DHT22;55276;53.260;50.222;2022-09-09T17:01:37;9.80;82.10
68358;DHT22;55276;53.260;50.222;2022-09-09T17:04:05;9.80;82.10
68358;DHT22;55276;53.260;50.222;2022-09-09T17:06:32;9.80;82.00
68358;DHT22;55276;53.260;50.222;2022-09-09T17:09:05;9.80;81.60
68358;DHT22;55276;53.260;50.222;2022-09-09T17:11:32;9.80;81.50
68358;DHT22;55276;53.260;50.222;2022-09-09T17:13:58;9.80;81.50
68358;DHT22;55276;53.260;50.222;2022-09-09T17:16:29;9.90;81.70
68358;DHT22;55276;53.260;50.222;2022-09-09T17:18:59;9.80;81.40
68358;DHT22;55276;53.260;50.222;2022-09-09T17:21:27;9.90;81.40
68358;DHT22;55276;53.260;50.222;2022-09-09T17:23:54;9.90;81.70
68358;DHT22;55276;53.260;50.222;2022-09-09T17:26:21;9.90;81.90
68358;DHT22;55276;53.260;50.222;2022-09-09T17:28:47;9.90;81.90
68358;DHT22;55276;53.260;50.222;2022-09-09T17:31:14;9.90;81.50
68358;DHT22;55276;53.260;50.222;2022-09-09T17:33:41;9.90;81.80
68358;DHT22;55276;53.260;50.222;2022-09-09T17:36:12;9.90;81.60
68358;DHT22;55276;53.260;50.222;2022-09-09T17:38:38;9.80;81.80